Time;durP1;ratioP1;P1;durP2;ratioP2;P2;SDS_P1;SDS_P2;PMS_P1;PMS_P2;Temp;Humidity;BMP_temperature;BMP_pressure;BME280_temperature;BME280_humidity;BME280_pressure;Samples;Min_cycle;Max_cycle;Signal;HPM_P1;HPM_P2
2023/10/23 00:01:38;;;;;;;7.40;4.10;;;12.40;98.70;;;;;;5051739;28;20467;-74
2023/10/23 00:04:07;;;;;;;6.60;4.05;;;12.40;99.90;;;;;;5051552;28;20373;-75
2023/10/23 00:06:33;;;;;;;7.23;4.37;;;12.40;98.60;;;;;;5051352;28;20880;-74
2023/10/23 00:09:00;;;;;;;12.35;4.45;;;12.30;98.50;;;;;;5051431;28;20493;-74
2023/10/23 00:11:27;;;;;;;6.57;4.00;;;12.10;99.60;;;;;;5050962;28;20390;-74
2023/10/23 00:13:53;;;;;;;8.95;4.25;;;12.00;99.90;;;;;;5050940;28;20812;-76
2023/10/23 00:16:19;;;;;;;10.70;4.63;;;11.90;99.90;;;;;;5051149;28;20453;-75
2023/10/23 00:18:45;;;;;;;5.93;4.20;;;11.80;99.90;;;;;;5051826;28;20382;-75
2023/10/23 00:21:11;;;;;;;7.03;3.92;;;11.80;99.90;;;;;;5054753;28;20385;-74
2023/10/23 00:23:37;;;;;;;9.57;4.30;;;11.70;99.90;;;;;;5057689;28;20408;-75
2023/10/23 00:26:04;;;;;;;10.70;4.60;;;11.50;99.90;;;;;;5055520;28;20386;-75
2023/10/23 00:28:30;;;;;;;8.00;4.70;;;11.40;99.90;;;;;;5052733;28;20439;-73
2023/10/23 00:30:55;;;;;;;8.98;4.63;;;11.40;99.90;;;;;;5050652;28;20425;-75
2023/10/23 00:33:21;;;;;;;11.10;5.30;;;11.30;99.90;;;;;;5050127;28;20439;-75
2023/10/23 00:35:46;;;;;;;8.00;5.20;;;11.20;99.90;;;;;;5050742;28;20431;-75
2023/10/23 00:38:12;;;;;;;7.17;5.00;;;11.10;99.90;;;;;;5050707;28;20417;-74
2023/10/23 00:40:37;;;;;;;7.70;5.80;;;11.10;99.90;;;;;;5050549;28;20395;-74
2023/10/23 00:43:20;;;;;;;9.38;5.20;;;11.10;99.90;;;;;;5050439;28;20461;-76
2023/10/23 00:46:11;;;;;;;10.88;4.85;;;11.10;99.90;;;;;;5049079;28;20386;-75
2023/10/23 00:48:36;;;;;;;11.10;5.03;;;11.00;99.90;;;;;;5050533;28;20399;-74
2023/10/23 00:51:03;;;;;;;5.35;4.53;;;10.90;99.90;;;;;;5050224;28;20465;-75
2023/10/23 00:53:36;;;;;;;9.50;5.53;;;10.90;99.90;;;;;;5050338;28;20862;-75
2023/10/23 00:56:07;;;;;;;11.02;5.63;;;10.80;99.90;;;;;;5050196;28;20926;-75
2023/10/23 00:58:35;;;;;;;10.52;5.50;;;10.80;99.90;;;;;;5050506;28;20432;-74
2023/10/23 01:01:01;;;;;;;9.52;5.97;;;10.80;99.90;;;;;;5050313;28;20420;-74
2023/10/23 01:03:27;;;;;;;7.47;5.15;;;10.70;99.90;;;;;;5050484;28;20386;-74
2023/10/23 01:05:52;;;;;;;12.33;5.10;;;10.70;99.90;;;;;;5050432;28;20468;-74
2023/10/23 01:08:18;;;;;;;8.98;5.38;;;10.60;99.90;;;;;;5050333;28;20743;-75
2023/10/23 01:10:45;;;;;;;8.25;5.88;;;10.50;99.90;;;;;;5050576;28;20411;-75
2023/10/23 01:13:11;;;;;;;8.50;6.00;;;10.50;99.90;;;;;;5050393;28;20382;-74
2023/10/23 01:15:37;;;;;;;8.40;5.63;;;10.50;99.90;;;;;;5050279;28;20821;-74
2023/10/23 01:18:03;;;;;;;10.18;5.90;;;10.50;99.90;;;;;;5050108;28;20492;-74
2023/10/23 01:20:30;;;;;;;11.30;7.80;;;10.50;99.90;;;;;;5050209;28;20412;-74
2023/10/23 01:23:00;;;;;;;9.93;6.40;;;10.60;99.90;;;;;;5050130;28;20384;-76
2023/10/23 01:25:26;;;;;;;10.70;7.65;;;10.60;99.90;;;;;;5050131;28;20748;-74
2023/10/23 01:27:52;;;;;;;9.18;6.63;;;10.70;99.90;;;;;;5049990;28;20378;-75
2023/10/23 01:30:18;;;;;;;8.80;6.03;;;10.70;99.90;;;;;;5049818;28;20432;-75
2023/10/23 01:32:44;;;;;;;20.27;7.83;;;10.60;99.90;;;;;;5049973;28;20382;-74
2023/10/23 01:35:10;;;;;;;12.85;6.35;;;10.60;99.90;;;;;;5049862;28;20475;-74
2023/10/23 01:37:36;;;;;;;12.50;6.87;;;10.70;99.90;;;;;;5049883;28;20405;-74
2023/10/23 01:40:03;;;;;;;12.35;6.32;;;10.60;99.90;;;;;;5050031;28;20887;-74
2023/10/23 01:42:31;;;;;;;10.75;5.85;;;10.70;99.90;;;;;;5050156;28;20389;-73
2023/10/23 01:44:57;;;;;;;13.20;6.47;;;10.60;99.90;;;;;;5051702;28;20385;-73
2023/10/23 01:47:24;;;;;;;12.57;6.30;;;10.60;99.90;;;;;;5054349;28;20442;-74
2023/10/23 01:49:49;;;;;;;11.95;6.63;;;10.50;99.90;;;;;;5054043;28;20397;-73
2023/10/23 01:52:16;;;;;;;12.00;6.90;;;10.40;99.90;;;;;;5054033;28;20455;-75
2023/10/23 01:54:41;;;;;;;10.13;6.18;;;10.30;99.90;;;;;;5053982;28;20400;-75
2023/10/23 01:57:07;;;;;;;11.15;6.68;;;10.20;99.90;;;;;;5054060;28;20413;-75
2023/10/23 01:59:32;;;;;;;13.77;7.10;;;10.10;99.90;;;;;;5053849;28;20890;-74
2023/10/23 02:01:58;;;;;;;12.90;8.00;;;10.20;99.90;;;;;;5054267;28;20404;-75
2023/10/23 02:04:23;;;;;;;10.77;7.13;;;10.10;99.90;;;;;;5054062;28;20879;-75
2023/10/23 02:06:49;;;;;;;14.40;7.30;;;10.10;99.90;;;;;;5054865;28;20867;-75
2023/10/23 02:09:16;;;;;;;13.90;7.70;;;10.10;99.90;;;;;;5054386;28;20732;-75
2023/10/23 02:11:42;;;;;;;11.60;6.88;;;10.00;99.90;;;;;;5054405;28;20388;-75
2023/10/23 02:14:08;;;;;;;15.68;6.90;;;10.10;99.90;;;;;;5054385;28;20891;-75
2023/10/23 02:16:34;;;;;;;10.68;7.25;;;10.00;99.90;;;;;;5053797;28;20404;-75
2023/10/23 02:19:00;;;;;;;11.35;6.50;;;10.10;99.90;;;;;;5053714;28;20389;-75
2023/10/23 02:21:25;;;;;;;12.23;7.03;;;10.00;99.90;;;;;;5053792;28;20389;-74
2023/10/23 02:23:51;;;;;;;14.00;7.60;;;10.10;99.90;;;;;;5053402;28;20385;-75
2023/10/23 02:26:17;;;;;;;13.67;7.20;;;10.20;99.90;;;;;;5053395;28;20397;-74
2023/10/23 02:28:43;;;;;;;13.00;6.97;;;10.10;99.90;;;;;;5053639;28;20729;-75
2023/10/23 02:31:08;;;;;;;15.03;8.30;;;10.10;99.90;;;;;;5053444;28;20512;-74
2023/10/23 02:33:34;;;;;;;16.03;7.63;;;10.10;99.90;;;;;;5054190;28;20393;-74
2023/10/23 02:36:00;;;;;;;11.17;7.70;;;10.10;99.90;;;;;;5053159;28;20421;-74
2023/10/23 02:38:25;;;;;;;15.30;7.23;;;10.10;99.90;;;;;;5053658;28;20389;-74
2023/10/23 02:40:54;;;;;;;13.30;7.20;;;10.10;99.90;;;;;;5053539;28;20853;-73
2023/10/23 02:43:21;;;;;;;13.68;7.50;;;10.00;99.90;;;;;;5053514;28;20393;-75
2023/10/23 02:45:47;;;;;;;12.75;8.23;;;10.00;99.90;;;;;;5053841;28;20701;-75
2023/10/23 02:48:13;;;;;;;14.63;7.90;;;10.00;99.90;;;;;;5053017;28;20421;-74
2023/10/23 02:50:39;;;;;;;12.70;7.37;;;10.00;99.90;;;;;;5053022;28;20890;-73
2023/10/23 02:53:06;;;;;;;13.13;7.00;;;9.90;99.90;;;;;;5053218;28;20468;-74
2023/10/23 02:55:32;;;;;;;17.05;8.07;;;9.90;99.90;;;;;;5052261;28;20389;-74
2023/10/23 02:57:58;;;;;;;12.43;7.30;;;9.90;99.90;;;;;;5052679;28;20416;-73
2023/10/23 03:00:23;;;;;;;14.07;8.57;;;9.90;99.90;;;;;;5051692;28;20880;-75
2023/10/23 03:02:50;;;;;;;12.20;7.00;;;9.90;99.90;;;;;;5052700;28;20422;-74
2023/10/23 03:05:16;;;;;;;17.13;8.68;;;10.00;99.90;;;;;;5052731;28;20382;-76
2023/10/23 03:07:42;;;;;;;15.32;8.45;;;10.00;99.90;;;;;;5052645;28;20511;-74
2023/10/23 03:10:09;;;;;;;12.38;8.60;;;9.90;99.90;;;;;;5052485;28;20919;-74
2023/10/23 03:12:35;;;;;;;15.48;8.27;;;9.90;99.90;;;;;;5052944;28;20465;-74
2023/10/23 03:15:02;;;;;;;14.35;8.50;;;9.90;99.90;;;;;;5052421;28;20748;-74
2023/10/23 03:17:28;;;;;;;14.75;8.23;;;9.90;99.90;;;;;;5052765;28;20412;-75
2023/10/23 03:19:53;;;;;;;14.77;8.07;;;9.90;99.90;;;;;;5052701;28;20743;-74
2023/10/23 03:22:19;;;;;;;14.43;8.60;;;9.80;99.90;;;;;;5052864;28;20488;-75
2023/10/23 03:24:45;;;;;;;11.57;7.90;;;9.80;99.90;;;;;;5052416;28;20389;-73
2023/10/23 03:27:11;;;;;;;13.43;8.47;;;9.90;99.90;;;;;;5052754;28;20755;-76
2023/10/23 03:29:36;;;;;;;17.42;9.13;;;9.80;99.90;;;;;;5052306;28;20397;-72
2023/10/23 03:32:02;;;;;;;14.03;8.00;;;9.80;99.90;;;;;;5097593;22;20459;-70
2023/10/23 03:34:28;;;;;;;13.15;8.60;;;9.80;99.90;;;;;;5080179;28;20372;-70
2023/10/23 03:36:54;;;;;;;16.35;8.50;;;9.90;99.90;;;;;;5080980;28;20399;-71
2023/10/23 03:39:19;;;;;;;14.82;8.10;;;9.80;99.90;;;;;;5081147;28;20375;-71
2023/10/23 03:41:45;;;;;;;11.70;8.00;;;9.70;99.90;;;;;;5080879;28;20730;-71
2023/10/23 03:44:10;;;;;;;16.00;8.70;;;9.70;99.90;;;;;;5081285;28;20368;-71
2023/10/23 03:46:36;;;;;;;11.67;7.53;;;9.70;99.90;;;;;;5080101;28;20419;-70
2023/10/23 03:49:01;;;;;;;13.10;7.70;;;9.70;99.90;;;;;;5080239;28;20391;-71
2023/10/23 03:51:27;;;;;;;15.53;8.37;;;9.70;99.90;;;;;;5079207;28;20402;-71
2023/10/23 03:53:52;;;;;;;14.77;7.77;;;9.70;99.90;;;;;;5078741;28;20742;-71
2023/10/23 03:56:18;;;;;;;15.93;8.00;;;9.70;99.90;;;;;;5080292;28;20783;-70
2023/10/23 03:58:44;;;;;;;16.40;8.82;;;9.70;99.90;;;;;;5078305;28;20875;-72
2023/10/23 04:01:14;;;;;;;17.27;8.57;;;9.70;99.90;;;;;;5077060;28;20384;-72
2023/10/23 04:03:39;;;;;;;12.68;8.10;;;9.70;99.90;;;;;;5080677;28;20376;-71
2023/10/23 04:06:05;;;;;;;13.38;8.30;;;9.80;99.90;;;;;;5079731;28;20384;-71
2023/10/23 04:08:30;;;;;;;15.85;8.07;;;9.80;99.90;;;;;;5079123;28;20384;-71
2023/10/23 04:10:56;;;;;;;12.02;7.57;;;9.80;99.90;;;;;;5077475;28;20553;-72
2023/10/23 04:13:22;;;;;;;13.55;8.27;;;9.80;99.90;;;;;;5078137;28;20381;-72
2023/10/23 04:15:55;;;;;;;16.08;8.70;;;9.80;99.90;;;;;;5077952;28;20723;-71
2023/10/23 04:18:21;;;;;;;11.83;8.40;;;9.80;99.90;;;;;;5077435;28;20431;-70
2023/10/23 04:20:46;;;;;;;12.32;7.57;;;9.80;99.90;;;;;;5078475;28;20411;-71
2023/10/23 04:23:12;;;;;;;16.07;8.20;;;9.70;99.90;;;;;;5077144;28;21039;-71
2023/10/23 04:25:37;;;;;;;16.00;8.00;;;9.80;99.90;;;;;;5077623;28;20527;-72
2023/10/23 04:28:03;;;;;;;16.53;8.10;;;9.80;99.90;;;;;;5077823;28;20419;-71
2023/10/23 04:30:30;;;;;;;13.00;8.10;;;9.70;99.90;;;;;;5077354;28;20391;-70
2023/10/23 04:32:56;;;;;;;10.43;7.60;;;9.70;99.90;;;;;;5078203;28;20391;-70
2023/10/23 04:35:21;;;;;;;14.32;8.30;;;9.70;99.90;;;;;;5077566;28;20388;-72
2023/10/23 04:37:47;;;;;;;16.02;8.25;;;9.70;99.90;;;;;;5078136;28;20414;-71
2023/10/23 04:40:13;;;;;;;14.65;8.15;;;9.70;99.90;;;;;;5078155;28;20416;-71
2023/10/23 04:42:38;;;;;;;12.03;7.80;;;9.70;99.90;;;;;;5077213;28;20408;-72
2023/10/23 04:45:04;;;;;;;16.30;7.63;;;9.80;99.90;;;;;;5078810;28;20463;-71
2023/10/23 04:47:30;;;;;;;13.77;7.78;;;9.70;99.90;;;;;;5077271;28;20387;-70
2023/10/23 04:49:55;;;;;;;16.90;8.10;;;9.70;99.90;;;;;;5080080;28;20434;-70
2023/10/23 04:52:23;;;;;;;12.50;7.90;;;9.60;99.90;;;;;;5079732;28;20387;-71
2023/10/23 04:54:49;;;;;;;13.88;7.78;;;9.60;99.90;;;;;;5079519;28;20466;-71
2023/10/23 04:57:15;;;;;;;12.70;7.20;;;9.70;99.90;;;;;;5079064;28;20921;-72
2023/10/23 04:59:40;;;;;;;17.87;8.40;;;9.60;99.90;;;;;;5079607;28;20391;-71
2023/10/23 05:02:06;;;;;;;13.55;8.10;;;9.60;99.90;;;;;;5079359;28;20391;-71
2023/10/23 05:04:31;;;;;;;14.20;8.40;;;9.60;99.90;;;;;;5078714;28;20384;-70
2023/10/23 05:06:57;;;;;;;13.77;8.27;;;9.50;99.90;;;;;;5078650;28;20383;-72
2023/10/23 05:09:23;;;;;;;15.40;8.60;;;9.50;99.90;;;;;;5078661;28;20383;-71
2023/10/23 05:11:49;;;;;;;15.53;9.23;;;9.50;99.90;;;;;;5078890;28;20412;-71
2023/10/23 05:14:14;;;;;;;20.67;8.63;;;9.50;99.90;;;;;;5077987;28;20862;-70
2023/10/23 05:16:40;;;;;;;17.25;8.45;;;9.50;99.90;;;;;;5079967;28;20400;-70
2023/10/23 05:19:07;;;;;;;15.40;8.23;;;9.50;99.90;;;;;;5077745;28;20384;-72
2023/10/23 05:21:33;;;;;;;17.52;8.82;;;9.40;99.90;;;;;;5078933;28;20392;-70
2023/10/23 05:23:58;;;;;;;15.70;8.20;;;9.40;99.90;;;;;;5078632;28;20463;-71
2023/10/23 05:26:24;;;;;;;18.53;8.40;;;9.40;99.90;;;;;;5079225;28;20391;-71
2023/10/23 05:28:53;;;;;;;15.10;8.10;;;9.40;99.90;;;;;;5078037;28;20395;-72
2023/10/23 05:31:19;;;;;;;12.93;7.82;;;9.40;99.90;;;;;;5077105;28;20406;-70
2023/10/23 05:33:44;;;;;;;14.70;8.38;;;9.30;99.90;;;;;;5077304;28;20403;-70
2023/10/23 05:36:10;;;;;;;14.57;8.65;;;9.20;99.90;;;;;;5077171;28;20398;-71
2023/10/23 05:38:37;;;;;;;14.50;8.55;;;9.30;99.90;;;;;;5076362;28;20793;-70
2023/10/23 05:41:02;;;;;;;14.38;7.80;;;9.30;99.90;;;;;;5075868;28;20410;-71
2023/10/23 05:43:29;;;;;;;13.07;8.20;;;9.20;99.90;;;;;;5078879;28;20387;-70
2023/10/23 05:45:55;;;;;;;21.43;8.80;;;9.20;99.90;;;;;;5078324;28;20433;-70
2023/10/23 05:48:21;;;;;;;15.90;8.80;;;9.20;99.90;;;;;;5076065;28;20409;-71
2023/10/23 05:50:59;;;;;;;13.70;8.10;;;9.10;99.90;;;;;;5077648;28;20512;-70
2023/10/23 05:53:25;;;;;;;16.70;9.00;;;9.10;99.90;;;;;;5077604;28;20407;-71
2023/10/23 05:55:50;;;;;;;16.73;9.63;;;9.10;99.90;;;;;;5078435;28;20384;-71
2023/10/23 05:58:16;;;;;;;15.17;8.90;;;9.10;99.90;;;;;;5078389;28;20446;-70
2023/10/23 06:00:42;;;;;;;19.67;9.03;;;9.10;99.90;;;;;;5077566;28;20441;-72
2023/10/23 06:03:07;;;;;;;18.10;8.60;;;9.10;99.90;;;;;;5077997;28;20387;-72
2023/10/23 06:05:38;;;;;;;14.98;9.88;;;9.10;99.90;;;;;;5077617;28;20384;-72
2023/10/23 06:08:04;;;;;;;15.48;9.10;;;9.10;99.90;;;;;;5077202;28;20399;-71
2023/10/23 06:10:29;;;;;;;17.77;8.97;;;9.10;99.90;;;;;;5079709;28;20396;-71
2023/10/23 06:12:55;;;;;;;12.90;8.30;;;9.20;99.90;;;;;;5078274;28;20406;-71
2023/10/23 06:15:20;;;;;;;12.57;8.20;;;9.20;99.90;;;;;;5077569;28;20465;-69
2023/10/23 06:17:48;;;;;;;19.13;8.40;;;9.20;99.90;;;;;;5078341;28;20403;-72
2023/10/23 06:20:14;;;;;;;13.57;7.93;;;9.30;99.90;;;;;;5077594;28;20396;-70
2023/10/23 06:22:40;;;;;;;13.40;7.67;;;9.20;99.90;;;;;;5078300;28;20509;-71
2023/10/23 06:25:05;;;;;;;14.83;7.57;;;9.20;99.90;;;;;;5076400;28;20383;-71
2023/10/23 06:27:31;;;;;;;14.33;7.30;;;9.20;99.90;;;;;;5078049;28;20380;-71
2023/10/23 06:29:56;;;;;;;16.00;7.33;;;9.20;99.90;;;;;;5077794;28;20395;-72
2023/10/23 06:32:22;;;;;;;15.07;7.37;;;9.30;99.90;;;;;;5082375;28;20398;-71
2023/10/23 06:34:51;;;;;;;15.77;7.55;;;9.30;99.90;;;;;;5082111;28;20460;-70
2023/10/23 06:37:16;;;;;;;13.00;7.10;;;9.30;99.90;;;;;;5081621;28;20511;-72
2023/10/23 06:39:42;;;;;;;20.10;7.20;;;9.40;99.90;;;;;;5080268;28;20908;-70
2023/10/23 06:42:07;;;;;;;15.48;6.90;;;9.40;99.90;;;;;;5080949;28;20457;-71
2023/10/23 06:44:33;;;;;;;16.50;6.63;;;9.50;99.90;;;;;;5078831;28;20418;-71
2023/10/23 06:46:58;;;;;;;11.70;7.30;;;9.50;99.90;;;;;;5077784;28;20461;-72
2023/10/23 06:49:24;;;;;;;13.57;7.17;;;9.60;99.90;;;;;;5074725;28;20453;-70
2023/10/23 06:51:50;;;;;;;11.20;6.90;;;9.80;99.90;;;;;;5077952;28;20394;-72
2023/10/23 06:54:15;;;;;;;12.40;7.20;;;9.80;99.90;;;;;;5073829;28;20842;-70
2023/10/23 06:56:41;;;;;;;14.17;7.40;;;9.80;99.90;;;;;;5075727;28;20447;-69
2023/10/23 06:59:06;;;;;;;13.90;7.80;;;9.80;99.90;;;;;;5063050;28;20385;-71
2023/10/23 07:01:32;;;;;;;14.35;7.43;;;9.80;99.90;;;;;;5058107;28;20389;-71
2023/10/23 07:03:57;;;;;;;16.35;7.95;;;9.80;99.90;;;;;;5076348;28;20380;-70
2023/10/23 07:06:23;;;;;;;15.50;7.40;;;9.90;99.90;;;;;;5077686;28;20845;-70
2023/10/23 07:08:48;;;;;;;15.27;6.70;;;9.90;99.90;;;;;;5078123;28;20913;-71
2023/10/23 07:11:18;;;;;;;12.37;7.10;;;9.90;99.90;;;;;;5079027;28;20383;-70
2023/10/23 07:13:44;;;;;;;17.83;8.30;;;10.00;99.90;;;;;;5077162;28;20400;-71
2023/10/23 07:16:10;;;;;;;14.10;7.47;;;10.10;99.90;;;;;;5058684;28;20412;-68
2023/10/23 07:18:35;;;;;;;10.17;6.30;;;10.10;99.90;;;;;;5060689;28;20385;-71
2023/10/23 07:21:01;;;;;;;15.57;7.23;;;10.20;99.90;;;;;;5059092;28;20416;-71
2023/10/23 07:23:28;;;;;;;13.57;7.63;;;10.20;99.90;;;;;;5059896;28;20740;-71
2023/10/23 07:26:07;;;;;;;12.02;6.30;;;10.30;99.90;;;;;;5058283;28;20806;-71
2023/10/23 07:28:33;;;;;;;10.80;6.50;;;10.40;99.90;;;;;;5057818;28;20393;-71
2023/10/23 07:31:02;;;;;;;13.23;6.35;;;10.40;99.90;;;;;;5075962;28;20890;-71
2023/10/23 07:33:27;;;;;;;12.88;6.50;;;10.50;99.90;;;;;;5076610;28;20419;-71
2023/10/23 07:36:04;;;;;;;13.40;7.50;;;10.60;99.90;;;;;;5077206;28;20415;-71
2023/10/23 07:38:30;;;;;;;8.77;5.80;;;10.70;99.90;;;;;;5069179;28;20490;-71
2023/10/23 07:40:57;;;;;;;11.25;6.30;;;10.70;99.90;;;;;;5059933;28;20451;-71
2023/10/23 07:43:27;;;;;;;12.35;6.40;;;10.80;99.90;;;;;;5076536;28;20414;-71
2023/10/23 07:45:54;;;;;;;12.68;5.60;;;10.90;99.90;;;;;;5078893;28;20470;-71
2023/10/23 07:48:21;;;;;;;11.18;5.50;;;11.00;99.90;;;;;;5078458;28;20455;-71
2023/10/23 07:50:47;;;;;;;13.43;5.90;;;11.00;99.90;;;;;;5076201;28;20387;-70
2023/10/23 07:53:12;;;;;;;12.40;6.10;;;11.10;99.90;;;;;;5075055;28;20459;-70
2023/10/23 07:55:38;;;;;;;11.93;6.40;;;11.20;99.90;;;;;;5074326;28;20387;-70
2023/10/23 07:58:03;;;;;;;10.23;5.27;;;11.30;99.90;;;;;;5075943;28;20399;-72
2023/10/23 08:00:29;;;;;;;12.20;6.13;;;11.30;99.90;;;;;;5077637;28;20413;-71
2023/10/23 08:02:55;;;;;;;11.40;5.77;;;11.40;99.90;;;;;;5076494;28;20832;-70
2023/10/23 08:05:21;;;;;;;12.20;6.60;;;11.40;99.90;;;;;;5077089;28;20388;-71
2023/10/23 08:07:47;;;;;;;11.15;6.05;;;11.40;99.90;;;;;;5077926;28;20402;-70
2023/10/23 08:10:13;;;;;;;10.83;6.00;;;11.60;99.90;;;;;;5077968;28;20435;-70
2023/10/23 08:12:39;;;;;;;6.95;5.85;;;11.60;99.90;;;;;;5076970;28;20430;-71
2023/10/23 08:15:05;;;;;;;10.15;5.60;;;11.70;99.90;;;;;;5076525;28;20425;-72
2023/10/23 08:17:31;;;;;;;11.68;6.20;;;11.70;97.90;;;;;;5076743;28;20491;-71
2023/10/23 08:19:57;;;;;;;12.43;5.97;;;11.80;99.90;;;;;;5073449;28;20510;-72
2023/10/23 08:22:23;;;;;;;10.80;4.80;;;12.00;99.90;;;;;;5074753;28;20388;-70
2023/10/23 08:24:49;;;;;;;9.68;5.20;;;12.10;98.10;;;;;;5073695;28;20475;-71
2023/10/23 08:27:14;;;;;;;12.57;5.60;;;12.10;99.90;;;;;;5074938;28;20467;-72
2023/10/23 08:29:40;;;;;;;12.13;5.77;;;12.10;96.00;;;;;;5071877;28;20456;-72
2023/10/23 08:32:05;;;;;;;8.80;5.90;;;12.10;95.40;;;;;;5074665;28;20461;-71
2023/10/23 08:34:31;;;;;;;12.90;6.85;;;12.20;99.90;;;;;;5075780;28;20423;-73
2023/10/23 08:36:56;;;;;;;10.68;5.60;;;12.30;97.50;;;;;;5060528;28;20413;-70
2023/10/23 08:39:23;;;;;;;10.00;5.80;;;12.40;93.60;;;;;;5058961;28;20392;-71
2023/10/23 08:41:49;;;;;;;7.20;4.40;;;12.40;90.90;;;;;;5059607;28;20392;-71
2023/10/23 08:44:16;;;;;;;10.20;6.28;;;12.60;83.00;;;;;;5058088;28;20381;-72
2023/10/23 08:46:42;;;;;;;10.88;4.90;;;12.60;79.70;;;;;;5056936;28;20400;-71
2023/10/23 08:49:08;;;;;;;10.23;5.32;;;12.70;83.40;;;;;;5071860;28;20473;-71
2023/10/23 08:51:35;;;;;;;8.60;5.10;;;12.80;81.90;;;;;;5076134;28;20813;-71
2023/10/23 08:54:06;;;;;;;10.05;5.70;;;12.90;79.60;;;;;;5074119;28;20383;-72
2023/10/23 08:56:37;;;;;;;12.30;5.30;;;12.90;80.10;;;;;;5075942;28;20453;-70
2023/10/23 08:59:03;;;;;;;9.45;5.18;;;13.00;78.70;;;;;;5074567;28;20380;-71
2023/10/23 09:01:29;;;;;;;11.20;4.80;;;13.00;77.40;;;;;;5076025;28;20455;-72
2023/10/23 09:03:56;;;;;;;10.38;4.40;;;13.10;75.90;;;;;;5076404;28;20407;-71
2023/10/23 09:06:21;;;;;;;11.88;5.10;;;13.20;73.60;;;;;;5075895;28;20488;-71
2023/10/23 09:08:47;;;;;;;7.67;4.70;;;13.30;71.60;;;;;;5073679;28;20396;-71
2023/10/23 09:11:13;;;;;;;8.50;5.07;;;13.40;70.20;;;;;;5073277;28;20395;-73
2023/10/23 09:13:40;;;;;;;10.70;4.50;;;13.50;69.40;;;;;;5073167;28;20388;-71
2023/10/23 09:16:07;;;;;;;8.90;4.10;;;13.60;69.90;;;;;;5074007;28;20375;-71
2023/10/23 09:18:34;;;;;;;9.07;3.53;;;13.80;66.70;;;;;;5075309;28;20430;-72
2023/10/23 09:21:00;;;;;;;4.60;3.65;;;13.90;64.30;;;;;;5074090;28;20388;-71
2023/10/23 09:23:27;;;;;;;6.45;3.60;;;14.00;64.70;;;;;;5075656;28;20364;-69
2023/10/23 09:25:57;;;;;;;6.28;3.28;;;14.10;62.40;;;;;;5056719;28;20378;-72
2023/10/23 09:28:25;;;;;;;9.23;3.73;;;14.20;61.90;;;;;;5054305;28;20377;-72
2023/10/23 09:30:51;;;;;;;20.02;4.50;;;14.30;60.60;;;;;;5069475;23;20439;-75
2023/10/23 09:33:17;;;;;;;8.40;3.20;;;14.40;61.10;;;;;;5064500;28;20395;-76
2023/10/23 09:35:43;;;;;;;9.82;3.90;;;14.40;62.40;;;;;;5064915;28;20388;-75
2023/10/23 09:38:15;;;;;;;9.07;3.87;;;14.50;57.40;;;;;;5062512;28;20719;-76
2023/10/23 09:40:43;;;;;;;8.00;3.58;;;14.50;57.20;;;;;;5070551;28;20375;-74
2023/10/23 09:43:09;;;;;;;9.00;3.70;;;14.40;57.20;;;;;;5051320;28;20385;-74
2023/10/23 09:45:36;;;;;;;6.47;3.60;;;14.50;56.50;;;;;;5051097;28;20471;-76
2023/10/23 09:48:03;;;;;;;9.93;4.30;;;14.50;56.00;;;;;;5053177;28;20429;-73
2023/10/23 09:50:30;;;;;;;10.02;4.03;;;14.60;56.20;;;;;;5055784;28;20397;-74
2023/10/23 09:52:57;;;;;;;7.38;3.90;;;14.70;55.60;;;;;;5050985;28;20401;-72
2023/10/23 09:55:27;;;;;;;7.15;3.83;;;14.70;55.80;;;;;;5069737;28;20395;-74
2023/10/23 09:57:54;;;;;;;8.18;4.40;;;14.70;54.30;;;;;;5069721;28;20411;-74
2023/10/23 10:00:20;;;;;;;5.07;3.63;;;14.90;54.90;;;;;;5069117;28;20387;-74
2023/10/23 10:02:48;;;;;;;9.70;4.13;;;14.90;53.00;;;;;;5068800;28;20395;-73
2023/10/23 10:05:40;;;;;;;8.60;4.43;;;15.00;52.60;;;;;;5069356;28;20383;-75
2023/10/23 10:08:13;;;;;;;11.48;5.05;;;15.00;52.60;;;;;;5057051;28;20472;-75
2023/10/23 10:10:40;;;;;;;8.15;4.20;;;15.20;51.80;;;;;;5051886;28;20424;-73
2023/10/23 10:13:06;;;;;;;6.65;4.15;;;15.30;51.80;;;;;;5051890;28;20397;-73
2023/10/23 10:15:33;;;;;;;7.80;4.23;;;15.40;49.20;;;;;;5051310;28;20518;-75
2023/10/23 10:17:59;;;;;;;14.45;5.25;;;15.50;49.40;;;;;;5046802;28;20416;-73
2023/10/23 10:20:25;;;;;;;6.10;4.18;;;15.50;48.30;;;;;;5040471;28;20400;-73
2023/10/23 10:22:58;;;;;;;8.35;4.97;;;15.70;46.20;;;;;;5052000;28;20468;-74
2023/10/23 10:25:26;;;;;;;6.55;4.45;;;15.70;46.80;;;;;;5039692;28;20444;-73
2023/10/23 10:27:57;;;;;;;11.05;4.20;;;15.80;46.10;;;;;;5032324;28;20395;-73
2023/10/23 10:30:45;;;;;;;9.65;4.60;;;15.90;47.20;;;;;;5033422;28;20398;-73
2023/10/23 10:33:31;;;;;;;8.82;4.38;;;15.90;46.10;;;;;;5032744;28;20399;-74
2023/10/23 10:36:05;;;;;;;9.13;5.37;;;15.90;45.70;;;;;;5029112;28;20754;-74
2023/10/23 10:38:32;;;;;;;10.80;5.30;;;16.10;45.80;;;;;;5050543;28;20444;-73
2023/10/23 10:41:03;;;;;;;9.30;5.35;;;16.10;45.10;;;;;;5049562;28;20794;-74
2023/10/23 10:43:33;;;;;;;8.55;4.63;;;16.20;44.80;;;;;;5050814;28;20728;-74
2023/10/23 10:46:18;;;;;;;9.30;5.28;;;16.30;44.20;;;;;;5057300;28;20816;-73
2023/10/23 10:48:49;;;;;;;13.93;5.22;;;16.30;44.20;;;;;;5071039;28;20383;-73
2023/10/23 10:51:34;;;;;;;6.97;4.70;;;16.50;44.00;;;;;;5070915;28;20394;-73
2023/10/23 10:54:03;;;;;;;11.07;5.07;;;16.60;43.10;;;;;;5070560;28;20424;-74
2023/10/23 10:56:29;;;;;;;15.65;5.30;;;16.60;41.80;;;;;;5070997;28;20743;-73
2023/10/23 10:58:59;;;;;;;9.23;5.45;;;16.60;42.10;;;;;;5070942;28;20383;-72
2023/10/23 11:01:24;;;;;;;14.90;5.40;;;16.40;42.60;;;;;;5067880;28;20408;-72
2023/10/23 11:03:50;;;;;;;11.70;5.57;;;16.40;43.40;;;;;;5038059;28;20429;-74
2023/10/23 11:06:16;;;;;;;9.93;4.90;;;16.40;43.20;;;;;;5030417;28;20905;-75
2023/10/23 11:08:42;;;;;;;10.77;5.63;;;16.40;42.80;;;;;;5034174;28;20877;-73
2023/10/23 11:11:07;;;;;;;11.10;5.77;;;16.50;43.20;;;;;;5049374;28;20462;-74
2023/10/23 11:13:33;;;;;;;9.32;5.40;;;16.50;42.80;;;;;;5045927;28;20403;-74
2023/10/23 11:15:59;;;;;;;8.43;5.30;;;16.50;43.20;;;;;;5029968;28;20529;-74
2023/10/23 11:18:25;;;;;;;12.75;5.10;;;16.50;43.30;;;;;;5031407;28;20431;-74
2023/10/23 11:20:57;;;;;;;9.55;5.30;;;16.40;43.50;;;;;;5037574;28;20399;-75
2023/10/23 11:23:23;;;;;;;9.87;5.20;;;16.40;43.80;;;;;;5031116;28;20443;-75
2023/10/23 11:25:49;;;;;;;9.75;5.22;;;16.40;43.50;;;;;;5028931;28;20397;-76
2023/10/23 11:28:18;;;;;;;16.83;5.93;;;16.40;43.10;;;;;;5029297;28;20391;-75
2023/10/23 11:30:49;;;;;;;11.60;5.38;;;16.40;43.10;;;;;;5030491;28;20399;-75
2023/10/23 11:33:18;;;;;;;6.13;4.50;;;16.50;42.50;;;;;;5029665;28;20432;-74
2023/10/23 11:35:43;;;;;;;10.10;4.80;;;16.50;42.10;;;;;;5029826;28;20979;-76
2023/10/23 11:38:20;;;;;;;6.00;4.30;;;16.50;41.90;;;;;;5030275;28;20407;-75
2023/10/23 11:40:46;;;;;;;6.60;3.73;;;16.50;41.30;;;;;;5030432;28;20387;-76
2023/10/23 11:43:13;;;;;;;7.22;4.20;;;16.40;41.30;;;;;;5030227;28;20419;-74
2023/10/23 11:45:40;;;;;;;7.80;4.10;;;16.40;41.40;;;;;;5028542;28;20837;-76
2023/10/23 11:48:11;;;;;;;8.90;3.90;;;16.40;41.80;;;;;;5029929;28;20466;-75
2023/10/23 11:50:38;;;;;;;5.25;3.80;;;16.50;41.40;;;;;;5028859;28;20395;-76
2023/10/23 11:53:04;;;;;;;8.65;3.67;;;16.50;41.90;;;;;;5030329;28;20478;-74
2023/10/23 11:55:31;;;;;;;6.47;2.90;;;16.50;42.20;;;;;;5030293;28;20474;-74
2023/10/23 11:57:56;;;;;;;5.45;3.08;;;16.80;40.10;;;;;;5030156;28;20407;-74
2023/10/23 12:00:23;;;;;;;7.63;3.00;;;16.80;40.10;;;;;;5029917;28;20391;-74
2023/10/23 12:02:49;;;;;;;5.05;2.95;;;16.80;39.50;;;;;;5029787;28;20496;-73
2023/10/23 12:05:22;;;;;;;7.20;3.00;;;16.70;40.00;;;;;;5030231;28;20395;-73
2023/10/23 12:07:49;;;;;;;10.88;2.90;;;16.70;40.10;;;;;;5029520;28;20862;-75
2023/10/23 12:10:19;;;;;;;5.68;2.35;;;16.70;39.30;;;;;;5030144;28;20407;-75
2023/10/23 12:12:45;;;;;;;6.13;2.45;;;16.80;39.10;;;;;;5033478;28;20914;-75
2023/10/23 12:15:12;;;;;;;5.15;2.30;;;16.70;39.10;;;;;;5044944;28;20396;-76
2023/10/23 12:17:38;;;;;;;4.22;2.25;;;16.70;38.80;;;;;;5044350;28;20451;-75
2023/10/23 12:20:08;;;;;;;6.00;2.20;;;16.70;39.00;;;;;;5030166;28;20437;-76
2023/10/23 12:22:42;;;;;;;8.53;2.60;;;16.60;39.30;;;;;;5032366;28;20921;-74
2023/10/23 12:25:09;;;;;;;4.27;2.30;;;16.60;39.20;;;;;;5032007;28;20774;-76
2023/10/23 12:27:36;;;;;;;6.93;3.15;;;16.70;39.10;;;;;;5030200;28;20398;-74
2023/10/23 12:30:04;;;;;;;5.57;2.50;;;16.70;39.80;;;;;;5029942;28;20482;-76
2023/10/23 12:32:30;;;;;;;4.82;3.00;;;16.70;39.50;;;;;;5049487;28;20467;-75
2023/10/23 12:34:57;;;;;;;3.42;2.40;;;17.00;37.50;;;;;;5051467;28;20392;-75
2023/10/23 12:37:26;;;;;;;3.00;1.95;;;17.00;37.90;;;;;;5051278;28;20779;-76
2023/10/23 12:39:56;;;;;;;11.48;4.18;;;17.10;37.90;;;;;;5052382;28;20413;-75
2023/10/23 12:42:22;;;;;;;6.43;2.80;;;17.30;37.00;;;;;;5043350;28;20770;-74